Addlestone, United Kingdom
Current Conditions -  °F | °C
As of 7:20 PM on Friday 24 Oct 2014 (Local Time) from EGLL Reporting Station
Broken Clouds Broken Clouds  
Wind Chill: 61°   Ceiling: 3200
Heat Index: 61°   Visibility: 6mi
Dew Point: 57°   Wind: 9mph
Humidity: 88%   Direction: 230°SW
Pressure: 29.91"   Gusts: NA
Location:  51.37°N, 0.49°W
Report Text: EGLL 241820Z 23008KT 9999 FEW025 BKN032 16/14 Q1013 TEMPO 4500 RADZ BKN012
Loading
Personal Weather Stations






























Interactive Weather Map
Tropical Storm Tracking
New forecast layout! Learn more

10-Day Weather Forecast

Advertisements
Track Severe Weather on mobile